ホーチミン の空港の天気 - METARとTAF

タンソンニャット国際空港 (ホーチミン) ( VVTS / SGN ) - ベトナム ホーチミン市
飛行場実況気象(Metar)
観測時間02/20 22:00 ICT (02/20 15:00 UTC)
風向・風速南東 3m/s
視程10km以上
天気現象
少しの雲 雲底高度 610m
気温27℃
湿度70%
気圧1010hPa
METARVVTS 201500Z 14006KT 120V180 9999 FEW020 27/21 Q1010 NOSIG
過去の天気等 Google飛行場航空写真 Wunderground天気予報

過去48時間のMETAR

飛行場予報(TAF)
発表時間: 2/20 18:00 ICT (2/20 11:00 UTC)
予報対象時間: 20日19時 ICT ~ 22日1時 ICT
風向・風速南東 4m/s
視程10km以上
全天の4割程度の雲 雲底高度 520m
全天の8割程度の雲 雲底高度 1,220m
21日4時 ICT ~ 21日8時 ICT に一時的に
視程3,000m
天気現象雨 もや
全天の8割程度の雲 雲底高度 460m
全天の8割程度の雲 雲底高度 1,220m
21日15時 ICT ~ 21日19時 ICT に一時的に
視程4,000m
天気現象しゅう雨
全天の4割程度の雲 雲底高度 400m
少しの積乱雲 雲底高度 460m
全天の8割程度の雲 雲底高度 1,220m
TAF VVTS 201100Z 2012/2118 14008KT 9999 SCT017 BKN040
TEMPO 2021/2101 3000 RA BR BKN015 BKN040
TEMPO 2108/2112 4000 SHRA SCT013 FEW015CB BKN040